ETEB

Ansbach Army Heliport

Germany
METAR ETEB 231356Z AUTO 06013G19KT 9999 CLR 01/M09 A2998 RMK AO2 SLP195 T00051090 $
Observed Flight Rules
Feb-23 @ 13:56 UTC (44 minutes ago) Visual Flight Rules
Wind Visibility Clouds
60° at 13 knots
 Gusting to 19 knots
10,000+ meters
  • Clear skies
Temperatures Readings
Current 1°C / 34°F
Dewpoint -9°C / 16°F
Humidity 48%
Altimeter 29.98" Hg
Pressure 1019.5 hPa
Elevation 467
METAR ETEB 231356Z AUTO 06013G19KT 9999 CLR 01/M09 A2998 RMK AO2 SLP195 T00051090 $
Observed Flight Rules
Feb-23 @ 13:56 UTC
(44 minutes ago)
VFR
Wind Visibility
60° at 13 knots
 Gusting to 19 knots
10,000+ meters
Clouds
  • Clear skies
Temperature Dewpoint
1°C / 34°F -9°C / 16°F
Humidity Altimeter Pressure
48% 29.98" Hg 1019.5 hPa